Time;durP1;ratioP1;P1;durP2;ratioP2;P2;SDS_P1;SDS_P2;PMS_P1;PMS_P2;Temp;Humidity;BMP_temperature;BMP_pressure;BME280_temperature;BME280_humidity;BME280_pressure;Samples;Min_cycle;Max_cycle;Signal;HPM_P1;HPM_P2
2023/09/14 00:00:14;;;;;;;;;17.00;16.40;;;;;24.65;100.00;98629.31;6288993;27;96902;-67
2023/09/14 00:03:17;;;;;;;;;16.60;14.40;;;;;24.62;100.00;98632.72;6261152;27;99721;-67
2023/09/14 00:06:22;;;;;;;;;13.75;12.75;;;;;24.57;100.00;98635.63;6252052;27;96523;-68
2023/09/14 00:09:26;;;;;;;;;13.00;13.00;;;;;24.60;100.00;98637.72;6262797;27;96420;-67
2023/09/14 00:12:30;;;;;;;;;17.00;15.00;;;;;24.65;100.00;98634.81;6250138;27;96495;-67
2023/09/14 00:15:34;;;;;;;;;16.00;15.00;;;;;24.60;100.00;98638.53;6262659;27;97509;-67
2023/09/14 00:18:37;;;;;;;;;14.25;14.25;;;;;24.60;100.00;98629.47;6228057;27;100150;-67
2023/09/14 00:21:42;;;;;;;;;12.25;12.25;;;;;24.63;100.00;98623.28;6260861;27;97115;-67
2023/09/14 00:24:45;;;;;;;;;15.00;13.40;;;;;24.57;100.00;98622.66;6269618;27;96337;-67
2023/09/14 00:27:48;;;;;;;;;15.00;14.00;;;;;24.50;100.00;98616.78;6287965;27;96769;-67
2023/09/14 00:30:52;;;;;;;;;16.00;14.00;;;;;24.59;100.00;98623.13;6265217;27;96473;-67
2023/09/14 00:33:56;;;;;;;;;14.00;14.00;;;;;24.57;100.00;98630.09;6261980;27;97011;-67
2023/09/14 00:37:01;;;;;;;;;15.75;14.75;;;;;24.40;100.00;98617.06;6260608;27;96418;-67
2023/09/14 00:40:06;;;;;;;;;14.00;14.00;;;;;24.48;100.00;98637.53;6260616;27;96224;-67
2023/09/14 00:43:10;;;;;;;;;14.60;14.60;;;;;24.49;100.00;98636.38;6262298;27;96411;-67
2023/09/14 00:46:13;;;;;;;;;15.00;14.00;;;;;24.51;100.00;98636.88;6262273;27;96350;-67
2023/09/14 00:49:17;;;;;;;;;16.00;15.20;;;;;24.49;100.00;98636.38;6261428;27;96450;-67
2023/09/14 00:52:21;;;;;;;;;13.00;13.00;;;;;24.48;100.00;98634.78;6243768;27;96591;-67
2023/09/14 00:55:26;;;;;;;;;13.00;12.00;;;;;24.45;100.00;98633.47;6240505;27;96222;-67
2023/09/14 00:58:29;;;;;;;;;16.00;14.00;;;;;24.36;100.00;98635.38;6245326;27;96808;-67
2023/09/14 01:01:32;;;;;;;;;17.00;17.00;;;;;24.33;100.00;98638.78;6244806;27;96444;-67
2023/09/14 01:04:36;;;;;;;;;14.00;14.00;;;;;24.30;100.00;98635.81;6286429;27;96350;-67
2023/09/14 01:07:40;;;;;;;;;13.75;13.00;;;;;24.29;100.00;98639.72;6270557;27;96605;-67
2023/09/14 01:10:44;;;;;;;;;16.60;13.60;;;;;24.34;100.00;98640.38;6290292;27;97045;-67
2023/09/14 01:13:57;;;;;;;;;15.80;14.80;;;;;24.26;100.00;98634.84;6265665;27;97067;-67
2023/09/14 01:17:06;;;;;;;;;13.00;12.00;;;;;24.27;100.00;98637.28;6256536;27;96313;-67
2023/09/14 01:20:27;;;;;;;;;14.60;14.00;;;;;24.23;100.00;98636.28;6269909;27;96697;-67
2023/09/14 01:23:38;;;;;;;;;12.67;12.00;;;;;24.13;100.00;98642.03;6244320;27;96340;-67
2023/09/14 01:26:45;;;;;;;;;10.00;9.00;;;;;24.13;100.00;98636.53;6257876;27;96350;-67
2023/09/14 01:29:50;;;;;;;;;10.00;9.60;;;;;24.15;100.00;98634.25;6260521;27;96259;-67
2023/09/14 01:32:53;;;;;;;;;12.00;11.40;;;;;24.15;100.00;98634.25;6247161;27;96502;-67
2023/09/14 01:36:03;;;;;;;;;13.40;13.00;;;;;24.20;100.00;98634.16;6247474;27;96300;-67
2023/09/14 01:39:07;;;;;;;;;17.00;15.00;;;;;24.21;100.00;98638.53;6243890;27;96389;-67
2023/09/14 01:42:12;;;;;;;;;12.20;11.80;;;;;24.23;100.00;98638.25;6247690;27;96583;-67
2023/09/14 01:45:17;;;;;;;;;15.00;14.67;;;;;24.22;100.00;98631.09;6243755;27;96475;-67
2023/09/14 01:48:22;;;;;;;;;17.80;14.80;;;;;24.20;100.00;98636.09;6243959;27;96853;-68
2023/09/14 01:51:25;;;;;;;;;17.00;13.00;;;;;24.21;100.00;98641.28;6251543;27;96281;-68
2023/09/14 01:54:28;;;;;;;;;14.00;13.67;;;;;24.19;100.00;98643.53;6261391;27;97117;-67
2023/09/14 01:57:33;;;;;;;;;15.25;14.00;;;;;24.21;100.00;98655.06;6247037;27;96433;-67
2023/09/14 02:00:37;;;;;;;;;11.50;10.00;;;;;24.17;100.00;98648.56;6242468;27;96299;-67
2023/09/14 02:03:40;;;;;;;;;13.60;13.00;;;;;24.21;100.00;98655.06;6271727;27;96383;-67
2023/09/14 02:06:43;;;;;;;;;12.60;12.00;;;;;24.17;100.00;98652.16;6271963;27;96456;-68
2023/09/14 02:09:47;;;;;;;;;12.00;12.00;;;;;24.19;100.00;98651.81;6266286;27;96519;-67
2023/09/14 02:12:51;;;;;;;;;13.00;13.00;;;;;24.16;100.00;98653.25;6246819;27;96351;-67
2023/09/14 02:15:54;;;;;;;;;13.40;12.40;;;;;24.21;100.00;98654.25;6246389;27;96548;-68
2023/09/14 02:18:58;;;;;;;;;12.00;11.60;;;;;24.23;100.00;98652.00;6246014;27;96229;-67
2023/09/14 02:22:01;;;;;;;;;14.60;12.40;;;;;24.26;100.00;98646.66;6270255;27;96401;-67
2023/09/14 02:25:07;;;;;;;;;12.50;12.00;;;;;24.23;100.00;98647.31;6289044;27;96307;-67
2023/09/14 02:28:13;;;;;;;;;11.00;10.80;;;;;24.24;100.00;98645.38;6270675;27;96751;-67
2023/09/14 02:31:17;;;;;;;;;11.00;11.00;;;;;24.27;100.00;98644.72;6251563;27;97235;-67
2023/09/14 02:34:21;;;;;;;;;10.80;10.00;;;;;24.29;100.00;98643.28;6246672;27;96572;-68
2023/09/14 02:37:24;;;;;;;;;12.00;11.00;;;;;24.29;100.00;98646.03;6264447;27;96496;-67
2023/09/14 02:40:29;;;;;;;;;10.00;9.00;;;;;24.32;100.00;98634.38;6258629;27;96869;-67
2023/09/14 02:43:33;;;;;;;;;10.00;10.00;;;;;24.35;100.00;98642.00;6263047;27;96320;-67
2023/09/14 02:46:37;;;;;;;;;8.80;8.80;;;;;24.39;100.00;98647.69;6266396;27;96743;-67
2023/09/14 02:49:40;;;;;;;;;11.00;10.00;;;;;24.40;100.00;98657.59;6264332;27;96523;-67
2023/09/14 02:52:43;;;;;;;;;10.50;10.50;;;;;24.37;100.00;98650.78;6263384;27;96889;-67
2023/09/14 02:55:46;;;;;;;;;11.00;10.00;;;;;24.37;100.00;98652.72;6251544;27;97571;-67
2023/09/14 02:58:53;;;;;;;;;10.00;9.25;;;;;24.37;100.00;98655.47;6258460;27;96374;-67
2023/09/14 03:01:56;;;;;;;;;10.20;9.40;;;;;24.39;100.00;98665.03;6274639;27;97023;-67
2023/09/14 03:05:00;;;;;;;;;11.25;10.00;;;;;24.27;100.00;98653.00;6265013;27;96428;-68
2023/09/14 03:08:03;;;;;;;;;9.00;9.00;;;;;24.39;100.00;98664.22;6253186;27;96624;-67
2023/09/14 03:11:06;;;;;;;;;12.00;11.00;;;;;24.37;100.00;98680.28;6245768;27;96341;-67
2023/09/14 03:14:11;;;;;;;;;10.00;9.40;;;;;24.28;100.00;98683.00;6250297;27;96940;-67
2023/09/14 03:17:15;;;;;;;;;11.00;9.00;;;;;24.26;100.00;98671.47;6263616;27;97823;-67
2023/09/14 03:20:18;;;;;;;;;13.00;12.00;;;;;24.27;100.00;98681.38;6258275;27;96648;-67
2023/09/14 03:23:21;;;;;;;;;12.80;12.20;;;;;24.26;100.00;98688.00;6275623;27;98736;-67
2023/09/14 03:26:27;;;;;;;;;13.00;11.40;;;;;24.22;100.00;98688.94;6266764;27;96451;-67
2023/09/14 03:29:33;;;;;;;;;14.40;12.60;;;;;24.20;100.00;98682.91;6250680;27;96462;-67
2023/09/14 03:32:36;;;;;;;;;9.00;8.00;;;;;24.20;100.00;98691.19;6249150;27;98209;-67
2023/09/14 03:35:42;;;;;;;;;9.80;9.00;;;;;24.15;100.00;98690.16;6285151;27;96669;-67
2023/09/14 03:38:45;;;;;;;;;9.00;8.00;;;;;24.16;100.00;98686.31;6258118;27;96700;-66
2023/09/14 03:41:50;;;;;;;;;12.00;10.00;;;;;24.13;100.00;98686.94;6269388;27;97497;-67
2023/09/14 03:44:55;;;;;;;;;9.60;9.00;;;;;24.11;100.00;98693.88;6266193;27;97027;-66
2023/09/14 03:47:58;;;;;;;;;10.75;9.75;;;;;24.10;100.00;98704.06;6271296;27;96520;-67
2023/09/14 03:51:01;;;;;;;;;8.80;8.80;;;;;24.08;100.00;98703.59;6258499;27;96917;-67
2023/09/14 03:54:04;;;;;;;;;8.00;8.00;;;;;24.07;100.00;98704.72;6253762;27;97215;-66
2023/09/14 03:57:14;;;;;;;;;9.00;8.00;;;;;24.04;100.00;98715.53;6251531;27;97469;-66
2023/09/14 04:00:20;;;;;;;;;8.50;7.50;;;;;23.94;100.00;98705.59;6249936;27;96450;-66
2023/09/14 04:03:23;;;;;;;;;8.00;7.00;;;;;23.87;100.00;98709.91;6251058;27;96511;-66
2023/09/14 04:06:26;;;;;;;;;7.60;7.00;;;;;23.85;100.00;98715.72;6274084;27;96323;-66
2023/09/14 04:09:30;;;;;;;;;10.60;9.00;;;;;23.82;100.00;98723.78;6242317;27;96747;-66
2023/09/14 04:12:34;;;;;;;;;7.00;6.40;;;;;23.79;100.00;98724.44;6267115;27;96237;-66
2023/09/14 04:15:38;;;;;;;;;8.00;8.00;;;;;23.77;100.00;98727.47;6263543;27;96645;-66
2023/09/14 04:18:42;;;;;;;;;8.60;7.60;;;;;23.74;100.00;98726.19;6258165;27;96851;-66
2023/09/14 04:21:46;;;;;;;;;9.00;8.00;;;;;23.75;100.00;98725.03;6262618;27;97109;-66
2023/09/14 04:24:50;;;;;;;;;8.00;7.00;;;;;23.73;100.00;98723.72;6248869;27;96510;-66
2023/09/14 04:27:53;;;;;;;;;9.40;9.00;;;;;23.74;100.00;98725.38;6263145;27;97223;-66
2023/09/14 04:31:02;;;;;;;;;7.00;7.00;;;;;23.73;100.00;98726.47;6272698;27;97615;-66
2023/09/14 04:34:06;;;;;;;;;6.75;5.75;;;;;23.69;100.00;98720.78;6252285;27;96582;-66
2023/09/14 04:37:09;;;;;;;;;7.00;7.00;;;;;23.67;100.00;98722.22;6280078;27;96594;-66
2023/09/14 04:40:13;;;;;;;;;7.50;6.00;;;;;23.65;100.00;98732.75;6246966;27;96654;-66
2023/09/14 04:43:16;;;;;;;;;7.00;7.00;;;;;23.62;100.00;98727.84;6254356;27;97083;-66
2023/09/14 04:46:20;;;;;;;;;6.20;6.20;;;;;23.59;100.00;98725.72;6264966;27;97819;-66
2023/09/14 04:49:24;;;;;;;;;8.20;8.20;;;;;23.56;100.00;98724.38;6270414;27;96773;-66
2023/09/14 04:52:27;;;;;;;;;9.00;7.60;;;;;23.60;100.00;98727.34;6259100;27;97109;-66
2023/09/14 04:55:31;;;;;;;;;9.60;7.60;;;;;23.50;100.00;98724.81;6273605;27;96640;-66
2023/09/14 04:58:34;;;;;;;;;8.00;8.00;;;;;23.58;100.00;98729.59;6275497;27;96919;-66
2023/09/14 05:01:39;;;;;;;;;9.00;8.00;;;;;23.64;100.00;98729.16;6251306;27;96709;-66
2023/09/14 05:04:42;;;;;;;;;8.00;7.00;;;;;23.66;100.00;98728.84;6276965;27;97516;-66
2023/09/14 05:07:45;;;;;;;;;8.00;7.60;;;;;23.65;100.00;98736.28;6262579;27;97372;-66
2023/09/14 05:10:50;;;;;;;;;7.00;6.00;;;;;23.65;100.00;98735.50;6281102;27;96356;-66
2023/09/14 05:13:54;;;;;;;;;9.00;8.00;;;;;23.69;100.00;98736.50;6272654;27;97558;-66
2023/09/14 05:16:58;;;;;;;;;6.80;6.40;;;;;23.67;100.00;98730.47;6250716;27;96909;-66
2023/09/14 05:20:03;;;;;;;;;6.00;6.00;;;;;23.65;100.00;98733.53;6264691;27;97102;-66
2023/09/14 05:23:06;;;;;;;;;10.00;8.40;;;;;23.63;100.00;98735.78;6258961;27;97883;-66
2023/09/14 05:26:10;;;;;;;;;9.20;8.00;;;;;23.68;100.00;98737.59;6272159;27;97086;-66
2023/09/14 05:29:13;;;;;;;;;8.75;7.25;;;;;23.67;100.00;98745.03;6262638;27;98062;-66
2023/09/14 05:32:18;;;;;;;;;7.80;6.00;;;;;23.67;100.00;98744.22;6277088;27;96794;-67
2023/09/14 05:35:21;;;;;;;;;7.00;6.20;;;;;23.65;100.00;98749.25;6266627;27;97332;-66
2023/09/14 05:38:24;;;;;;;;;8.00;8.00;;;;;23.68;100.00;98743.13;6264164;27;96256;-66
2023/09/14 05:41:27;;;;;;;;;7.80;6.80;;;;;23.69;100.00;98745.56;6252574;27;96988;-66
2023/09/14 05:44:31;;;;;;;;;8.00;6.50;;;;;23.67;100.00;98750.56;6264274;27;96466;-66
2023/09/14 05:47:36;;;;;;;;;9.00;9.00;;;;;23.68;100.00;98754.13;6247209;27;96622;-66
2023/09/14 05:50:40;;;;;;;;;7.60;7.00;;;;;23.68;100.00;98751.38;6260363;27;96805;-66
2023/09/14 05:53:44;;;;;;;;;6.20;6.20;;;;;23.61;100.00;98748.22;6246198;27;96697;-66
2023/09/14 05:56:47;;;;;;;;;10.00;9.00;;;;;23.64;100.00;98756.69;6258191;27;96321;-66
2023/09/14 05:59:51;;;;;;;;;9.00;8.00;;;;;23.67;100.00;98756.06;6253295;27;96845;-66
2023/09/14 06:02:55;;;;;;;;;9.00;8.80;;;;;23.70;100.00;98749.13;6265064;27;96508;-66
2023/09/14 06:05:59;;;;;;;;;9.00;8.40;;;;;23.75;100.00;98752.56;6263654;27;96314;-66
2023/09/14 06:09:02;;;;;;;;;10.00;9.00;;;;;23.81;100.00;98755.19;6255497;27;98420;-66
2023/09/14 06:12:06;;;;;;;;;7.80;7.00;;;;;23.82;100.00;98754.06;6260802;27;96507;-66
2023/09/14 06:15:10;;;;;;;;;10.00;9.00;;;;;23.85;100.00;98761.72;6246448;27;98407;-66
2023/09/14 06:18:15;;;;;;;;;11.00;9.00;;;;;23.86;100.00;98761.41;6246474;27;96729;-66
2023/09/14 06:21:19;;;;;;;;;10.25;9.75;;;;;23.80;100.00;98759.09;6264674;27;96322;-66
2023/09/14 06:24:22;;;;;;;;;7.40;6.60;;;;;23.78;100.00;98764.91;6247324;27;97037;-66
2023/09/14 06:27:26;;;;;;;;;10.60;9.40;;;;;23.82;100.00;98770.59;6276934;27;97876;-66
2023/09/14 06:30:29;;;;;;;;;12.00;11.80;;;;;23.85;100.00;98762.50;6255088;27;99668;-66
2023/09/14 06:33:34;;;;;;;;;8.80;6.80;;;;;23.80;100.00;98775.59;6278199;27;96818;-66
2023/09/14 06:36:37;;;;;;;;;10.00;9.00;;;;;23.82;100.00;98770.59;6261797;27;97741;-67
2023/09/14 06:39:40;;;;;;;;;13.60;10.60;;;;;23.89;100.00;98774.56;6267664;27;96347;-66
2023/09/14 06:42:44;;;;;;;;;12.50;11.50;;;;;23.98;100.00;98769.94;6264720;27;96638;-66
2023/09/14 06:45:47;;;;;;;;;11.50;10.00;;;;;24.08;100.00;98774.38;6267195;27;96903;-66
2023/09/14 06:48:52;;;;;;;;;9.00;9.00;;;;;24.19;100.00;98770.25;6288577;27;96441;-67
2023/09/14 06:51:55;;;;;;;;;11.00;10.00;;;;;24.35;100.00;98774.25;6289533;27;97628;-66
2023/09/14 06:54:58;;;;;;;;;8.40;8.40;;;;;24.43;100.00;98780.97;6270563;27;96856;-67
2023/09/14 06:58:02;;;;;;;;;10.40;10.40;;;;;24.49;100.00;98779.69;6287529;27;96522;-66
2023/09/14 07:01:05;;;;;;;;;11.20;10.00;;;;;24.44;100.00;98791.66;6245462;27;96550;-66
2023/09/14 07:04:10;;;;;;;;;9.00;8.40;;;;;24.42;100.00;98790.38;6262260;27;96537;-67
2023/09/14 07:07:13;;;;;;;;;9.00;7.00;;;;;24.37;100.00;98790.50;6245298;27;96320;-66
2023/09/14 07:10:16;;;;;;;;;11.00;9.00;;;;;24.35;100.00;98803.75;6228530;27;96815;-66
2023/09/14 07:13:20;;;;;;;;;9.00;9.00;;;;;24.26;100.00;98819.41;6244805;27;96681;-66
2023/09/14 07:16:23;;;;;;;;;7.60;6.60;;;;;24.14;100.00;98823.50;6245039;27;96837;-66
2023/09/14 07:19:28;;;;;;;;;10.50;10.00;;;;;24.03;100.00;98822.13;6245569;27;96742;-66
2023/09/14 07:22:31;;;;;;;;;7.60;7.60;;;;;23.87;100.00;98823.59;6263649;27;96278;-66
2023/09/14 07:25:34;;;;;;;;;7.00;6.00;;;;;23.89;100.00;98826.88;6245691;27;97257;-66
2023/09/14 07:28:38;;;;;;;;;6.80;6.20;;;;;23.90;100.00;98845.00;6235095;27;96721;-66
2023/09/14 07:31:41;;;;;;;;;8.40;7.40;;;;;23.94;100.00;98840.53;6257133;27;97023;-66
2023/09/14 07:34:46;;;;;;;;;8.00;6.40;;;;;23.97;100.00;98837.13;6263575;27;98454;-66
2023/09/14 07:37:49;;;;;;;;;8.60;7.00;;;;;24.00;100.00;98847.53;6275752;27;97606;-66
2023/09/14 07:40:53;;;;;;;;;7.00;7.00;;;;;24.04;100.00;98848.53;6256875;27;96549;-66
2023/09/14 07:43:56;;;;;;;;;9.00;9.00;;;;;24.13;100.00;98856.88;6274459;27;97422;-66
2023/09/14 07:46:59;;;;;;;;;9.00;8.00;;;;;23.88;100.00;98799.63;6274738;27;96595;-66
2023/09/14 07:50:05;;;;;;;;;7.00;7.00;;;;;24.26;100.00;98863.50;6264805;27;96651;-66
2023/09/14 07:53:09;;;;;;;;;6.50;5.00;;;;;24.25;100.00;98854.41;6265659;27;97195;-66
2023/09/14 07:56:13;;;;;;;;;6.80;6.00;;;;;24.32;100.00;98870.53;6258321;27;96844;-66
2023/09/14 07:59:16;;;;;;;;;4.00;4.00;;;;;24.35;100.00;98876.22;6275669;27;97104;-66
2023/09/14 08:02:19;;;;;;;;;6.00;5.00;;;;;24.50;100.00;98886.06;6274991;27;96348;-67
2023/09/14 08:05:24;;;;;;;;;5.00;5.00;;;;;24.51;100.00;98877.47;6263072;27;96863;-66
2023/09/14 08:08:27;;;;;;;;;3.00;3.00;;;;;24.66;100.00;98887.31;6243904;27;96784;-66
2023/09/14 08:11:33;;;;;;;;;6.00;5.00;;;;;24.70;100.00;98893.00;6244152;27;96743;-66
2023/09/14 08:14:36;;;;;;;;;4.00;3.60;;;;;24.71;100.00;98897.41;6263199;27;96721;-67
2023/09/14 08:17:39;;;;;;;;;4.00;4.00;;;;;24.77;100.00;98898.91;6261239;27;98671;-66
2023/09/14 08:20:44;;;;;;;;;4.00;4.00;;;;;24.75;100.00;98901.16;6244301;27;96700;-67
2023/09/14 08:23:47;;;;;;;;;5.60;5.00;;;;;24.81;100.00;98897.16;6230062;27;98626;-67
2023/09/14 08:26:51;;;;;;;;;4.00;4.00;;;;;24.73;100.00;98897.91;6274374;27;97028;-66
2023/09/14 08:29:54;;;;;;;;;4.00;4.00;;;;;24.72;100.00;98896.28;6275431;27;96340;-67
2023/09/14 08:32:57;;;;;;;;;5.00;5.00;;;;;24.76;100.00;98902.78;6273817;27;96575;-67
2023/09/14 08:36:02;;;;;;;;;4.00;4.00;;;;;24.81;100.00;98905.41;6256338;27;96531;-67
2023/09/14 08:39:05;;;;;;;;;6.20;5.60;;;;;24.81;100.00;98909.00;6262953;27;96615;-66
2023/09/14 08:42:22;;;;;;;;;5.60;5.60;;;;;24.87;100.00;98915.22;6273968;27;96945;-67
2023/09/14 08:45:27;;;;;;;;;4.00;4.00;;;;;24.89;100.00;98907.44;6255829;27;96849;-67
2023/09/14 08:48:32;;;;;;;;;3.00;3.00;;;;;24.98;100.00;98917.38;6255492;27;96694;-67
2023/09/14 08:51:39;;;;;;;;;4.00;3.00;;;;;25.00;100.00;98920.66;6274270;27;97096;-67
2023/09/14 08:54:43;;;;;;;;;4.60;4.60;;;;;25.05;100.00;98919.72;6271596;27;96369;-66
2023/09/14 08:57:47;;;;;;;;;5.00;5.00;;;;;25.09;100.00;98922.66;6239957;27;97872;-67
2023/09/14 09:00:53;;;;;;;;;4.00;4.00;;;;;24.93;100.00;98919.47;6273558;27;96482;-67
2023/09/14 09:03:57;;;;;;;;;5.00;3.40;;;;;24.97;100.00;98929.56;6249091;27;96789;-67
2023/09/14 09:07:03;;;;;;;;;4.00;4.00;;;;;24.93;100.00;98934.06;6243934;27;96552;-67
2023/09/14 09:10:09;;;;;;;;;4.00;4.00;;;;;24.88;100.00;98931.44;6273193;27;97248;-67
2023/09/14 09:13:12;;;;;;;;;5.00;4.67;;;;;24.91;100.00;98939.09;6287846;27;97486;-67
2023/09/14 09:16:15;;;;;;;;;3.00;3.00;;;;;24.97;100.00;98932.31;6287360;27;97078;-67
2023/09/14 09:19:19;;;;;;;;;3.20;2.00;;;;;25.08;100.00;98935.63;6269135;27;96377;-67
2023/09/14 09:22:23;;;;;;;;;3.00;3.00;;;;;25.19;100.00;98930.66;6287427;27;96277;-68
2023/09/14 09:25:29;;;;;;;;;3.20;3.00;;;;;25.29;100.00;98927.63;6286845;27;96899;-67
2023/09/14 09:28:32;;;;;;;;;2.00;2.00;;;;;25.33;100.00;98934.97;6270216;27;96346;-67
2023/09/14 09:31:42;;;;;;;;;2.20;2.20;;;;;25.27;100.00;98941.72;6291194;27;96469;-67
2023/09/14 09:34:45;;;;;;;;;3.00;2.00;;;;;25.24;100.00;98947.91;6287584;27;96351;-67
2023/09/14 09:37:51;;;;;;;;;2.00;2.00;;;;;25.21;100.00;98945.78;6259103;27;96986;-67
2023/09/14 09:40:54;;;;;;;;;2.75;2.00;;;;;25.18;100.00;98953.84;6248091;27;97501;-67
2023/09/14 09:43:58;;;;;;;;;5.00;5.00;;;;;25.21;100.00;98958.75;6266590;27;96360;-67
2023/09/14 09:47:02;;;;;;;;;3.00;3.00;;;;;25.15;100.00;98958.06;6266034;27;96774;-67
2023/09/14 09:50:10;;;;;;;;;2.25;2.25;;;;;25.13;100.00;98965.03;6247716;27;96276;-67
2023/09/14 09:53:16;;;;;;;;;2.40;2.40;;;;;25.10;100.00;98957.38;6269532;27;96448;-67
2023/09/14 09:56:23;;;;;;;;;2.80;2.00;;;;;25.05;100.00;98966.59;6286249;27;96396;-67
2023/09/14 09:59:29;;;;;;;;;3.00;2.00;;;;;25.16;100.00;98954.19;6291295;27;96720;-67
2023/09/14 10:02:32;;;;;;;;;5.00;4.00;;;;;25.15;100.00;98965.53;6266743;27;96392;-67
2023/09/14 10:05:38;;;;;;;;;4.00;4.00;;;;;25.06;100.00;98964.66;6264606;27;96681;-67
2023/09/14 10:08:53;;;;;;;;;3.00;3.00;;;;;24.88;100.00;98939.72;6265601;27;96616;-67
2023/09/14 10:12:00;;;;;;;;;4.00;3.00;;;;;24.99;100.00;98948.56;6278762;27;96408;-67
2023/09/14 10:15:05;;;;;;;;;5.00;5.00;;;;;25.08;100.00;98959.63;6286428;27;96296;-67
2023/09/14 10:18:09;;;;;;;;;5.00;5.00;;;;;25.13;100.00;98960.31;6273375;27;96666;-67
2023/09/14 10:21:13;;;;;;;;;5.00;5.00;;;;;25.25;100.00;98963.31;6229230;27;99020;-67
2023/09/14 10:24:19;;;;;;;;;5.00;4.00;;;;;25.34;100.00;98963.38;6229841;27;96721;-67
2023/09/14 10:27:25;;;;;;;;;4.00;4.00;;;;;25.41;100.00;98961.00;6246264;27;96904;-67
2023/09/14 10:30:28;;;;;;;;;5.00;4.60;;;;;25.44;100.00;98960.34;6272518;27;96542;-67
2023/09/14 10:33:32;;;;;;;;;5.20;4.00;;;;;25.43;100.00;98962.28;6277726;27;96398;-67
2023/09/14 10:36:37;;;;;;;;;5.00;4.50;;;;;25.52;100.00;98967.03;6272697;27;96440;-67
2023/09/14 10:39:46;;;;;;;;;7.00;7.00;;;;;25.57;100.00;98970.50;6269168;27;96492;-67
2023/09/14 10:42:49;;;;;;;;;5.00;4.60;;;;;25.54;100.00;98971.09;6270385;27;96771;-67
2023/09/14 10:46:00;;;;;;;;;5.00;5.00;;;;;25.53;100.00;98971.41;6247474;27;96924;-67
2023/09/14 10:49:04;;;;;;;;;4.00;4.00;;;;;25.43;100.00;98967.81;6263828;27;97263;-67
2023/09/14 10:52:07;;;;;;;;;4.00;4.00;;;;;25.38;100.00;98959.66;6246416;27;97556;-67
2023/09/14 10:55:12;;;;;;;;;5.00;4.00;;;;;25.46;100.00;98964.41;6263576;27;96445;-67
2023/09/14 10:58:17;;;;;;;;;5.40;4.60;;;;;25.44;100.00;98965.84;6263976;27;96420;-67
2023/09/14 11:01:25;;;;;;;;;3.00;3.00;;;;;25.41;100.00;98966.50;6264157;27;96414;-67
2023/09/14 11:05:12;;;;;;;;;5.50;4.00;;;;;25.45;100.00;98965.56;6264648;27;97562;-67
2023/09/14 11:08:16;;;;;;;;;5.20;5.00;;;;;25.55;100.00;98967.25;6264311;27;96299;-67
2023/09/14 11:11:38;;;;;;;;;4.00;3.40;;;;;25.64;100.00;98961.75;6245901;27;96362;-67
2023/09/14 11:15:13;;;;;;;;;4.00;4.00;;;;;25.75;100.00;98974.16;6254398;27;96479;-67
2023/09/14 11:18:17;;;;;;;;;5.40;5.40;;;;;25.80;100.00;98971.25;6289561;27;97522;-67
2023/09/14 11:21:45;;;;;;;;;4.40;4.00;;;;;25.76;100.00;98979.34;6289333;27;96526;-67
2023/09/14 11:24:51;;;;;;;;;4.00;4.00;;;;;25.74;100.00;98972.53;6266487;27;96566;-67
2023/09/14 11:27:57;;;;;;;;;4.00;4.00;;;;;25.68;100.00;98991.19;6264232;27;96262;-67
2023/09/14 11:31:03;;;;;;;;;4.00;3.00;;;;;25.67;100.00;98978.50;6264091;27;96565;-67
2023/09/14 11:34:14;;;;;;;;;4.20;4.20;;;;;25.61;100.00;98987.25;6263830;27;96379;-67
2023/09/14 11:37:21;;;;;;;;;5.00;5.00;;;;;25.56;100.00;98988.19;6264093;27;97891;-67
2023/09/14 11:40:32;;;;;;;;;6.50;5.00;;;;;25.56;100.00;98984.63;6245402;27;96392;-67
2023/09/14 11:44:03;;;;;;;;;4.00;4.00;;;;;25.55;100.00;98992.09;6244200;27;98740;-68
2023/09/14 11:47:26;;;;;;;;;5.00;5.00;;;;;25.51;100.00;98991.03;6263911;27;96979;-67
2023/09/14 11:50:38;;;;;;;;;4.00;4.00;;;;;25.51;100.00;98996.56;6263124;27;96413;-67
2023/09/14 11:53:41;;;;;;;;;4.20;4.20;;;;;25.49;100.00;98998.84;6275965;27;96303;-67
2023/09/14 11:56:45;;;;;;;;;8.00;8.00;;;;;25.51;100.00;99006.81;6261827;27;97742;-67
2023/09/14 11:59:50;;;;;;;;;6.00;6.00;;;;;25.51;100.00;98999.34;6263053;27;96337;-67
2023/09/14 12:02:54;;;;;;;;;8.00;7.60;;;;;25.42;100.00;99004.81;6227706;27;99010;-67
2023/09/14 12:05:58;;;;;;;;;7.75;7.75;;;;;25.43;100.00;99000.09;6244951;27;96810;-67
2023/09/14 12:09:03;;;;;;;;;8.00;7.00;;;;;25.48;100.00;99001.91;6245207;27;96651;-67
2023/09/14 12:12:27;;;;;;;;;6.40;6.40;;;;;25.54;100.00;99009.75;6263198;27;96461;-67
2023/09/14 12:15:32;;;;;;;;;7.50;7.00;;;;;25.55;100.00;99007.84;6263210;27;96593;-67
2023/09/14 12:18:40;;;;;;;;;9.60;9.00;;;;;25.57;100.00;99011.91;6262750;27;96381;-67
2023/09/14 12:21:44;;;;;;;;;9.00;8.00;;;;;25.65;100.00;99015.84;6243374;27;96674;-67
2023/09/14 12:24:50;;;;;;;;;8.00;8.00;;;;;25.68;100.00;99004.97;6278322;27;96566;-67
2023/09/14 12:27:53;;;;;;;;;9.00;9.00;;;;;25.71;100.00;98998.81;6256094;27;96727;-67
2023/09/14 12:30:58;;;;;;;;;6.60;6.00;;;;;25.66;100.00;98996.19;6261536;27;97690;-67
2023/09/14 12:34:03;;;;;;;;;6.00;6.00;;;;;25.60;100.00;99010.47;6231741;27;96861;-67
2023/09/14 12:37:07;;;;;;;;;6.60;6.60;;;;;25.59;100.00;98993.09;6274983;27;96332;-67
2023/09/14 12:40:13;;;;;;;;;8.00;8.00;;;;;25.60;100.00;99005.78;6236809;27;96747;-67
2023/09/14 12:43:18;;;;;;;;;8.00;7.00;;;;;25.70;100.00;98999.16;6273410;27;96465;-67
2023/09/14 12:46:24;;;;;;;;;5.25;5.00;;;;;25.85;100.00;99001.50;6264362;27;96569;-67
2023/09/14 12:49:27;;;;;;;;;8.00;7.40;;;;;25.97;100.00;99003.63;6260640;27;97352;-67
2023/09/14 12:52:32;;;;;;;;;7.50;7.50;;;;;26.10;100.00;98999.91;6286531;27;96623;-66
2023/09/14 12:55:39;;;;;;;;;8.80;8.00;;;;;26.23;100.00;99010.09;6251478;27;99548;-67
2023/09/14 12:58:42;;;;;;;;;8.00;8.00;;;;;26.37;100.00;99004.41;6255929;27;98487;-67
2023/09/14 13:01:48;;;;;;;;;8.20;6.80;;;;;26.51;100.00;99008.66;6253938;27;97120;-67
2023/09/14 13:04:51;;;;;;;;;8.00;7.00;;;;;26.59;100.00;98998.75;6267625;27;96446;-66
2023/09/14 13:07:59;;;;;;;;;6.50;6.50;;;;;26.60;100.00;99008.69;6261172;27;97103;-67
2023/09/14 13:11:06;;;;;;;;;8.40;8.40;;;;;26.53;100.00;99008.34;6251397;27;98467;-67
2023/09/14 13:14:20;;;;;;;;;7.00;7.00;;;;;26.59;100.00;99016.16;6271632;27;98580;-67
2023/09/14 13:17:25;;;;;;;;;7.50;7.00;;;;;26.58;100.00;99011.78;6254325;27;98463;-67
2023/09/14 13:20:30;;;;;;;;;6.40;6.40;;;;;26.48;100.00;99012.09;6267632;27;97933;-67
2023/09/14 13:23:34;;;;;;;;;6.50;6.50;;;;;26.44;100.00;99019.38;6286076;27;97091;-67
2023/09/14 13:26:38;;;;;;;;;9.00;9.00;;;;;26.40;100.00;99018.41;6253770;27;96658;-67
2023/09/14 13:29:41;;;;;;;;;7.80;7.00;;;;;26.23;100.00;99012.84;6275019;27;97399;-67
2023/09/14 13:32:45;;;;;;;;;7.20;7.00;;;;;26.01;100.00;99018.44;6241218;27;97893;-67
2023/09/14 13:35:49;;;;;;;;;7.20;7.20;;;;;25.99;100.00;99009.66;6262943;27;98483;-67
2023/09/14 13:38:53;;;;;;;;;9.00;8.60;;;;;25.93;100.00;99008.97;6243957;27;97247;-67
2023/09/14 13:41:56;;;;;;;;;5.50;5.00;;;;;25.85;100.00;99010.56;6263800;27;96592;-67
2023/09/14 13:45:01;;;;;;;;;7.50;7.25;;;;;25.72;100.00;99008.72;6255269;27;96871;-67
2023/09/14 13:48:08;;;;;;;;;6.60;6.60;;;;;25.66;100.00;98996.19;6246604;27;96595;-67
2023/09/14 13:51:14;;;;;;;;;9.00;7.40;;;;;25.61;100.00;99010.13;6230598;27;96645;-67
2023/09/14 13:54:23;;;;;;;;;6.00;6.00;;;;;25.58;100.00;99004.44;6265913;27;96337;-67
2023/09/14 13:57:28;;;;;;;;;6.80;5.80;;;;;25.53;100.00;99007.31;6285737;27;96277;-67
2023/09/14 14:00:33;;;;;;;;;5.20;5.20;;;;;25.48;100.00;99001.91;6245968;27;96800;-67
2023/09/14 14:03:37;;;;;;;;;9.00;8.00;;;;;25.41;100.00;99008.69;6268251;27;96754;-67
2023/09/14 14:06:41;;;;;;;;;7.00;6.67;;;;;25.34;100.00;99008.34;6265378;27;97014;-67
2023/09/14 14:09:46;;;;;;;;;8.60;8.00;;;;;25.33;100.00;99003.94;6268872;27;96764;-67
2023/09/14 14:12:49;;;;;;;;;7.00;7.00;;;;;25.36;100.00;99013.56;6263055;27;96888;-67
2023/09/14 14:15:52;;;;;;;;;6.40;5.00;;;;;25.35;100.00;99012.75;6246588;27;96440;-67